Time;durP1;ratioP1;P1;durP2;ratioP2;P2;SDS_P1;SDS_P2;PMS_P1;PMS_P2;Temp;Humidity;BMP_temperature;BMP_pressure;BME280_temperature;BME280_humidity;BME280_pressure;Samples;Min_cycle;Max_cycle;Signal;HPM_P1;HPM_P2
2021/07/18 00:02:21;;;;;;;5.93;3.93;;;;;;;18.12;77.09;102511.09;5075391;28;19950;-36
2021/07/18 00:04:46;;;;;;;;;;;;;;;18.28;75.32;102504.03;5075266;28;20235;-36
2021/07/18 00:07:12;;;;;;;6.03;3.80;;;;;;;18.05;78.05;102504.91;5074751;28;19965;-37
2021/07/18 00:09:37;;;;;;;;;;;;;;;18.17;74.97;102503.00;5075273;28;20028;-37
2021/07/18 00:12:02;;;;;;;3.73;3.23;;;;;;;17.92;78.33;102511.47;5074672;28;19908;-36
2021/07/18 00:14:28;;;;;;;;;;;;;;;18.12;74.95;102511.09;5075226;28;20032;-36
2021/07/18 00:16:53;;;;;;;7.00;4.10;;;;;;;17.87;78.11;102508.63;5074552;28;19909;-37
2021/07/18 00:19:18;;;;;;;;;;;;;;;18.04;75.04;102508.72;5075130;28;20024;-36
2021/07/18 00:21:43;;;;;;;6.30;4.10;;;;;;;17.84;78.89;102497.31;5074136;28;19912;-36
2021/07/18 00:24:08;;;;;;;;;;;;;;;18.04;75.59;102502.41;5074801;28;20028;-36
2021/07/18 00:26:34;;;;;;;7.67;4.63;;;;;;;18.00;78.51;102507.53;5074727;28;19912;-41
2021/07/18 00:28:59;;;;;;;;;;;;;;;18.10;76.00;102496.78;5073724;28;20377;-37
2021/07/18 00:31:24;;;;;;;7.45;4.32;;;;;;;17.82;78.87;102499.47;5075071;28;19909;-37
2021/07/18 00:33:50;;;;;;;;;;;;;;;18.03;76.19;102501.59;5075148;28;20407;-37
2021/07/18 00:36:15;;;;;;;7.03;4.20;;;;;;;17.81;78.74;102498.63;5073478;28;19916;-36
2021/07/18 00:38:40;;;;;;;;;;;;;;;17.92;76.38;102499.72;5074526;28;20273;-37
2021/07/18 00:41:06;;;;;;;7.83;4.50;;;;;;;17.67;78.98;102503.50;5074490;28;19919;-36
2021/07/18 00:43:32;;;;;;;5.97;4.05;;;;;;;17.57;80.06;102503.25;5073842;28;20286;-37
2021/07/18 00:45:59;;;;;;;6.65;4.57;;;;;;;17.55;79.88;102513.59;5074017;28;20028;-36
2021/07/18 00:48:30;;;;;;;4.63;4.10;;;;;;;17.45;80.07;102503.25;5074205;28;20024;-36
2021/07/18 00:50:56;;;;;;;6.03;4.35;;;;;;;17.54;80.52;102509.19;5074002;28;20025;-36
2021/07/18 00:53:22;;;;;;;7.07;4.55;;;;;;;17.59;80.33;102492.91;5073879;28;20401;-37
2021/07/18 00:55:48;;;;;;;;;;;;;;;17.72;77.78;102492.69;5075201;28;20024;-36
2021/07/18 00:58:14;;;;;;;6.90;4.38;;;;;;;17.50;80.13;102477.91;5074181;28;19904;-36
2021/07/18 01:00:39;;;;;;;;;;;;;;;17.73;77.77;102485.31;5074632;28;20074;-37
2021/07/18 01:03:05;;;;;;;4.15;3.65;;;;;;;17.34;79.61;102486.84;5073797;28;19904;-36
2021/07/18 01:05:31;;;;;;;;;;;;;;;17.64;77.45;102494.94;5074261;28;20024;-36
2021/07/18 01:07:56;;;;;;;7.72;4.65;;;;;;;17.32;79.80;102488.97;5073306;28;20344;-36
2021/07/18 01:10:21;;;;;;;;;;;;;;;17.58;77.78;102493.16;5073851;28;20074;-37
2021/07/18 01:12:47;;;;;;;7.10;4.87;;;;;;;17.47;80.34;102497.53;5073424;28;19908;-36
2021/07/18 01:15:13;;;;;;;7.95;4.95;;;;;;;17.35;81.44;102488.50;5073418;28;20267;-36
2021/07/18 01:17:39;;;;;;;7.53;5.60;;;;;;;17.28;81.68;102476.84;5073611;28;20032;-36
2021/07/18 01:20:08;;;;;;;7.70;5.75;;;;;;;17.46;81.00;102493.13;5073642;28;20506;-36
2021/07/18 01:22:34;;;;;;;8.45;5.18;;;;;;;17.36;81.05;102485.50;5074038;28;20031;-36
2021/07/18 01:24:59;;;;;;;7.97;5.60;;;;;;;17.38;81.33;102493.50;5073887;28;20029;-36
2021/07/18 01:27:25;;;;;;;6.70;5.68;;;;;;;17.27;81.76;102486.09;5073551;28;20461;-36
2021/07/18 01:29:51;;;;;;;6.85;5.97;;;;;;;17.32;81.64;102494.44;5073763;28;20024;-36
2021/07/18 01:32:16;;;;;;;6.88;5.57;;;;;;;17.23;82.19;102478.38;5073760;28;20467;-36
2021/07/18 01:34:41;;;;;;;6.90;5.65;;;;;;;17.24;82.09;102482.78;5074055;28;20020;-36
2021/07/18 01:37:07;;;;;;;;;;;;;;;17.43;79.47;102483.53;5073701;28;20051;-36
2021/07/18 01:39:32;;;;;;;7.45;5.90;;;;;;;17.34;81.89;102476.72;5075933;28;20366;-36
2021/07/18 01:41:57;;;;;;;;;;;;;;;17.49;80.02;102479.81;5078721;28;20049;-36
2021/07/18 01:44:23;;;;;;;10.75;6.47;;;;;;;17.21;82.51;102483.25;5077545;28;19912;-36
2021/07/18 01:46:48;;;;;;;;;;;;;;;17.44;79.84;102476.97;5077916;28;20097;-36
2021/07/18 01:49:14;;;;;;;8.95;5.82;;;;;;;17.22;82.32;102457.56;5077368;28;19920;-36
2021/07/18 01:51:39;;;;;;;7.85;6.35;;;;;;;17.26;82.33;102479.81;5077441;28;20024;-36
2021/07/18 01:54:07;;;;;;;6.95;5.88;;;;;;;17.09;82.40;102446.88;5077264;28;20456;-36
2021/07/18 01:56:33;;;;;;;9.52;6.07;;;;;;;17.23;82.61;102470.19;5077032;28;20051;-36
2021/07/18 01:58:58;;;;;;;;;;;;;;;17.38;80.13;102463.44;5077603;28;20032;-36
2021/07/18 02:01:27;;;;;;;7.75;6.28;;;;;;;17.23;83.00;102470.19;5077164;28;19916;-36
2021/07/18 02:03:53;;;;;;;9.73;6.18;;;;;;;17.01;83.38;102447.22;5077024;28;20028;-36
2021/07/18 02:06:21;;;;;;;;;;;;;;;17.32;80.80;102464.34;5078330;28;20028;-36
2021/07/18 02:08:46;;;;;;;8.90;6.80;;;;;;;16.96;83.39;102463.47;5076862;28;20314;-36
2021/07/18 02:11:12;;;;;;;10.33;7.17;;;;;;;17.04;82.55;102463.16;5077022;28;20101;-36
2021/07/18 02:13:37;;;;;;;11.35;7.15;;;;;;;17.08;83.25;102463.50;5077359;28;20316;-36
2021/07/18 02:16:03;;;;;;;;;;;;;;;17.22;80.81;102459.47;5077878;28;20453;-36
2021/07/18 02:18:28;;;;;;;11.82;7.03;;;;;;;17.01;83.22;102455.41;5077273;28;19958;-36
2021/07/18 02:20:54;;;;;;;10.85;7.10;;;;;;;16.93;83.01;102432.00;5077110;28;20034;-36
2021/07/18 02:23:21;;;;;;;10.40;7.50;;;;;;;17.12;83.19;102448.28;5076732;28;20028;-37
2021/07/18 02:25:46;;;;;;;;;;;;;;;17.21;81.06;102455.06;5077671;28;20052;-36
2021/07/18 02:28:11;;;;;;;12.07;6.88;;;;;;;17.12;82.54;102457.31;5076316;28;19947;-36
2021/07/18 02:30:37;;;;;;;8.63;6.60;;;;;;;17.00;83.37;102448.28;5076659;28;20020;-36
2021/07/18 02:33:02;;;;;;;7.80;6.55;;;;;;;17.00;83.12;102456.47;5076512;28;20667;-36
2021/07/18 02:35:28;;;;;;;8.50;6.60;;;;;;;17.01;83.04;102460.88;5076830;28;20108;-36
2021/07/18 02:37:54;;;;;;;8.52;6.13;;;;;;;17.01;83.08;102449.94;5076497;28;20024;-36
2021/07/18 02:40:20;;;;;;;;;;;;;;;17.13;81.52;102469.94;5077416;28;20066;-36
2021/07/18 02:42:46;;;;;;;11.02;7.43;;;;;;;16.90;83.68;102464.41;5077027;28;19944;-36
2021/07/18 02:45:12;;;;;;;;;;;;;;;17.10;81.97;102458.63;5077095;28;20033;-36
2021/07/18 02:47:38;;;;;;;9.27;6.40;;;;;;;16.97;83.79;102460.50;5076123;28;19935;-36
2021/07/18 02:50:07;;;;;;;;;;;;;;;17.08;81.38;102464.34;5076785;28;20360;-36
2021/07/18 02:52:33;;;;;;;10.70;7.13;;;;;;;16.79;84.08;102438.75;5075987;28;19940;-36
2021/07/18 02:54:58;;;;;;;9.02;7.03;;;;;;;16.84;84.17;102451.72;5076254;28;20393;-36
2021/07/18 02:57:23;;;;;;;;;;;;;;;17.00;82.16;102456.47;5076797;28;20035;-36
2021/07/18 02:59:49;;;;;;;12.43;7.53;;;;;;;16.86;84.19;102442.19;5076421;28;19973;-36
2021/07/18 03:02:15;;;;;;;9.70;7.40;;;;;;;16.89;84.09;102457.31;5076254;28;20102;-36
2021/07/18 03:04:40;;;;;;;9.97;7.70;;;;;;;16.81;84.35;102446.69;5076079;28;20036;-36
2021/07/18 03:07:05;;;;;;;10.10;7.83;;;;;;;16.78;84.46;102455.34;5076205;28;20267;-36
2021/07/18 03:09:31;;;;;;;11.15;7.68;;;;;;;16.70;84.63;102464.69;5076000;28;20278;-36
2021/07/18 03:11:56;;;;;;;;;;;;;;;16.85;82.62;102454.19;5077150;28;20063;-36
2021/07/18 03:14:21;;;;;;;11.10;8.10;;;;;;;16.51;85.13;102446.69;5076300;28;20003;-36
2021/07/18 03:16:48;;;;;;;11.50;8.02;;;;;;;16.47;85.45;102432.66;5075484;28;20024;-36
2021/07/18 03:19:13;;;;;;;12.95;8.45;;;;;;;16.66;85.68;102453.41;5075675;28;20024;-36
2021/07/18 03:21:39;;;;;;;11.27;8.65;;;;;;;16.57;85.05;102445.75;5075458;28;20514;-36
2021/07/18 03:24:04;;;;;;;;;;;;;;;16.77;83.19;102446.31;5076593;28;20077;-36
2021/07/18 03:26:30;;;;;;;12.85;9.25;;;;;;;16.58;85.40;102437.31;5076124;28;19927;-36
2021/07/18 03:28:55;;;;;;;13.90;8.50;;;;;;;16.68;85.56;102444.97;5075197;28;20373;-36
2021/07/18 03:31:21;;;;;;;;;;;;;;;16.79;82.99;102452.41;5075971;28;20020;-36
2021/07/18 03:33:46;;;;;;;11.57;7.90;;;;;;;16.66;85.39;102449.84;5075421;28;19958;-36
2021/07/18 03:36:11;;;;;;;;;;;;;;;16.77;83.26;102457.25;5076180;28;20055;-36
2021/07/18 03:38:37;;;;;;;10.73;8.35;;;;;;;16.60;85.20;102457.06;5075593;28;19904;-36
2021/07/18 03:41:02;;;;;;;11.15;8.75;;;;;;;16.54;85.62;102455.22;5075318;28;20441;-36
2021/07/18 03:43:28;;;;;;;11.10;9.07;;;;;;;16.57;85.52;102456.69;5075588;28;20076;-36
2021/07/18 03:45:53;;;;;;;13.20;8.57;;;;;;;16.53;85.62;102453.56;5075557;28;20110;-36
2021/07/18 03:48:18;;;;;;;13.67;8.80;;;;;;;16.59;85.50;102458.13;5075685;28;20028;-36
2021/07/18 03:50:44;;;;;;;13.03;9.73;;;;;;;16.31;86.26;102439.63;5075469;28;20262;-36
2021/07/18 03:53:09;;;;;;;13.18;9.32;;;;;;;16.51;86.06;102460.34;5074768;28;20278;-36
2021/07/18 03:55:34;;;;;;;13.25;9.65;;;;;;;16.31;86.48;102449.69;5075183;28;20103;-36
2021/07/18 03:58:00;;;;;;;11.68;9.15;;;;;;;16.36;86.36;102468.94;5075262;28;20391;-36
2021/07/18 04:00:25;;;;;;;11.38;9.10;;;;;;;16.41;86.27;102455.44;5074702;28;20025;-36
2021/07/18 04:02:51;;;;;;;13.60;9.90;;;;;;;16.44;86.75;102469.44;5074731;28;20016;-36
2021/07/18 04:05:16;;;;;;;12.73;9.40;;;;;;;16.31;87.34;102460.63;5075620;28;20516;-36
2021/07/18 04:07:41;;;;;;;;;;;;;;;16.54;84.92;102465.31;5075659;28;20020;-36
2021/07/18 04:10:07;;;;;;;14.45;9.70;;;;;;;16.30;86.47;102443.41;5075025;28;20359;-36
2021/07/18 04:12:33;;;;;;;;;;;;;;;16.56;84.36;102464.03;5074674;28;20032;-36
2021/07/18 04:14:58;;;;;;;12.27;9.63;;;;;;;16.50;86.70;102464.16;5075454;28;20305;-36
2021/07/18 04:17:23;;;;;;;15.15;10.02;;;;;;;16.37;86.97;102460.53;5074764;28;20051;-36
2021/07/18 04:19:49;;;;;;;15.05;10.00;;;;;;;16.36;87.34;102469.78;5075327;28;20088;-36
2021/07/18 04:22:15;;;;;;;12.02;9.75;;;;;;;16.43;86.86;102464.22;5073168;28;20039;-36
2021/07/18 04:24:40;;;;;;;12.77;10.10;;;;;;;16.28;87.25;102436.50;5074780;28;20456;-36
2021/07/18 04:27:05;;;;;;;12.18;10.55;;;;;;;16.33;87.38;102459.31;5074912;28;20028;-36
2021/07/18 04:29:31;;;;;;;17.92;10.65;;;;;;;16.22;87.41;102457.38;5074301;28;20407;-36
2021/07/18 04:31:56;;;;;;;15.68;9.98;;;;;;;16.46;87.36;102463.78;5074266;28;20031;-36
2021/07/18 04:34:22;;;;;;;14.50;10.07;;;;;;;16.48;87.02;102467.09;5074004;28;20086;-36
2021/07/18 04:36:47;;;;;;;13.60;9.93;;;;;;;16.34;87.44;102471.06;5074456;28;20255;-36
2021/07/18 04:39:13;;;;;;;14.38;10.20;;;;;;;16.29;87.98;102458.09;5074142;28;20033;-36
2021/07/18 04:41:38;;;;;;;;;;;;;;;16.49;85.77;102466.03;5074521;28;20060;-36
2021/07/18 04:44:04;;;;;;;14.52;10.32;;;;;;;16.51;87.29;102468.53;5074089;28;20345;-36
2021/07/18 04:46:30;;;;;;;13.65;10.55;;;;;;;16.34;88.11;102450.06;5074075;28;20024;-36
2021/07/18 04:48:55;;;;;;;13.57;10.15;;;;;;;16.50;86.99;102464.97;5073939;28;20020;-36
2021/07/18 04:51:21;;;;;;;14.88;10.82;;;;;;;16.52;87.58;102457.38;5073721;28;20108;-36
2021/07/18 04:53:46;;;;;;;17.15;10.68;;;;;;;16.60;87.62;102472.63;5073899;28;20024;-36
2021/07/18 04:56:11;;;;;;;;;;;;;;;16.72;85.84;102474.34;5074338;28;20472;-36
2021/07/18 04:58:37;;;;;;;12.63;9.90;;;;;;;16.64;86.15;102466.47;5073828;28;20299;-36
2021/07/18 05:01:03;;;;;;;;;;;;;;;16.88;85.44;102466.53;5074284;28;20028;-36
2021/07/18 05:03:28;;;;;;;14.10;10.18;;;;;;;16.70;87.08;102459.22;5073736;28;19930;-36
2021/07/18 05:05:53;;;;;;;15.93;10.83;;;;;;;16.93;86.57;102469.41;5073562;28;20067;-36
2021/07/18 05:08:19;;;;;;;16.40;11.27;;;;;;;16.97;86.28;102474.16;5073694;28;20335;-36
2021/07/18 05:10:44;;;;;;;13.63;11.05;;;;;;;17.05;86.49;102472.19;5074012;28;20293;-36
2021/07/18 05:13:09;;;;;;;;;;;;;;;17.20;85.32;102478.84;5073587;28;20445;-36
2021/07/18 05:15:35;;;;;;;11.63;10.13;;;;;;;17.20;86.22;102476.13;5073664;28;20259;-36
2021/07/18 05:18:12;;;;;;;12.20;10.20;;;;;;;17.22;85.42;102468.50;5073367;28;20760;-36
2021/07/18 05:20:38;;;;;;;12.85;9.73;;;;;;;17.18;85.93;102467.34;5073599;28;20028;-36
2021/07/18 05:23:03;;;;;;;;;;;;;;;17.46;84.77;102471.25;5074517;28;20406;-36
2021/07/18 05:25:28;;;;;;;11.43;9.20;;;;;;;17.44;84.00;102473.41;5073830;28;19999;-36
2021/07/18 05:27:54;;;;;;;16.10;9.82;;;;;;;17.57;84.64;102469.59;5074229;28;20745;-36
2021/07/18 05:30:19;;;;;;;;;;;;;;;17.72;84.12;102465.31;5073957;28;20039;-36
2021/07/18 05:32:44;;;;;;;11.33;9.37;;;;;;;17.65;84.27;102461.84;5073507;28;19904;-36
2021/07/18 05:35:11;;;;;;;11.60;9.87;;;;;;;17.74;84.16;102471.41;5073547;28;20246;-36
2021/07/18 05:37:36;;;;;;;13.70;9.70;;;;;;;17.75;84.36;102459.38;5073701;28;20269;-36
2021/07/18 05:40:08;;;;;;;10.80;8.48;;;;;;;17.94;83.06;102470.19;5073382;28;20032;-36
2021/07/18 05:42:34;;;;;;;14.43;9.23;;;;;;;17.99;83.01;102462.91;5073596;28;20051;-36
2021/07/18 05:44:59;;;;;;;11.13;9.07;;;;;;;18.07;82.95;102458.97;5073716;28;20040;-36
2021/07/18 05:47:25;;;;;;;;;;;;;;;18.23;82.54;102469.16;5073659;28;20024;-37
2021/07/18 05:49:51;;;;;;;11.02;8.18;;;;;;;18.14;82.12;102470.59;5074097;28;20229;-36
2021/07/18 05:52:16;;;;;;;11.75;8.65;;;;;;;18.21;82.04;102470.50;5073284;28;20024;-36
2021/07/18 05:54:41;;;;;;;;;;;;;;;18.40;81.97;102462.94;5073735;28;20016;-36
2021/07/18 05:57:07;;;;;;;10.13;7.77;;;;;;;18.28;81.01;102450.09;5073635;28;20058;-37
2021/07/18 05:59:32;;;;;;;;;;;;;;;18.57;81.63;102466.53;5073719;28;20027;-36
2021/07/18 06:01:58;;;;;;;12.20;7.50;;;;;;;18.53;79.50;102454.41;5073210;28;20015;-36
2021/07/18 06:04:24;;;;;;;;;;;;;;;18.80;80.66;102462.06;5073655;28;20029;-36
2021/07/18 06:06:49;;;;;;;10.60;6.80;;;;;;;18.63;77.83;102446.34;5073985;28;19904;-36
2021/07/18 06:09:15;;;;;;;;;;;;;;;18.87;78.95;102462.72;5073761;28;20364;-36
2021/07/18 06:11:40;;;;;;;10.02;7.35;;;;;;;18.72;77.84;102466.84;5073218;28;19915;-36
2021/07/18 06:14:05;;;;;;;;;;;;;;;18.92;78.83;102465.53;5073839;28;20166;-36
2021/07/18 06:16:31;;;;;;;10.15;6.78;;;;;;;18.71;77.60;102465.19;5073634;28;19916;-36
2021/07/18 06:18:56;;;;;;;;;;;;;;;18.84;78.50;102465.94;5074326;28;20488;-37
2021/07/18 06:21:21;;;;;;;10.20;6.53;;;;;;;18.82;78.15;102460.72;5073145;28;19909;-36
2021/07/18 06:23:46;;;;;;;;;;;;;;;19.07;78.65;102456.75;5073089;28;20286;-36
2021/07/18 06:26:13;;;;;;;8.60;6.45;;;;;;;19.08;77.51;102459.25;5074329;28;19909;-36
2021/07/18 06:28:38;;;;;;;10.07;6.75;;;;;;;19.10;77.49;102459.81;5076312;28;20024;-36
2021/07/18 06:31:03;;;;;;;;;;;;;;;19.28;78.15;102465.06;5077692;28;20028;-36
2021/07/18 06:33:29;;;;;;;7.53;5.90;;;;;;;19.28;77.17;102466.97;5076846;28;20337;-36
2021/07/18 06:35:54;;;;;;;;;;;;;;;19.44;77.60;102465.28;5077005;28;20776;-36
2021/07/18 06:38:19;;;;;;;9.23;6.10;;;;;;;19.40;76.66;102470.44;5076723;28;19904;-36
2021/07/18 06:40:44;;;;;;;;;;;;;;;19.51;77.16;102476.91;5077234;28;20086;-36
2021/07/18 06:43:10;;;;;;;7.90;6.17;;;;;;;19.41;75.84;102457.56;5075950;28;20002;-36
2021/07/18 06:45:35;;;;;;;;;;;;;;;19.65;76.86;102470.03;5076759;28;20274;-36
2021/07/18 06:48:01;;;;;;;7.75;6.05;;;;;;;19.56;75.87;102466.00;5076232;28;19914;-36
2021/07/18 06:50:26;;;;;;;;;;;;;;;19.77;76.29;102464.44;5076948;28;20021;-36
2021/07/18 06:52:52;;;;;;;6.87;4.80;;;;;;;19.63;73.94;102465.88;5075215;28;19911;-36
2021/07/18 06:55:18;;;;;;;6.43;4.75;;;;;;;19.75;74.16;102474.81;5075738;28;20050;-36
2021/07/18 06:57:48;;;;;;;7.45;4.53;;;;;;;19.75;74.44;102470.16;5076412;28;20028;-36
2021/07/18 07:00:14;;;;;;;6.18;4.28;;;;;;;19.89;73.08;102473.38;5075834;28;20048;-36
2021/07/18 07:02:39;;;;;;;;;;;;;;;20.03;74.88;102471.09;5076386;28;20059;-37
2021/07/18 07:05:05;;;;;;;4.47;3.17;;;;;;;19.93;72.81;102473.69;5076324;28;20300;-36
2021/07/18 07:07:30;;;;;;;5.65;3.88;;;;;;;19.93;72.19;102477.28;5075655;28;20445;-36
2021/07/18 07:09:55;;;;;;;;;;;;;;;20.06;73.53;102474.16;5075999;28;20031;-36
2021/07/18 07:12:21;;;;;;;5.63;4.13;;;;;;;20.00;73.38;102477.06;5076503;28;19908;-36
2021/07/18 07:14:46;;;;;;;;;;;;;;;20.15;74.16;102463.53;5075935;28;20271;-37
2021/07/18 07:17:11;;;;;;;6.07;3.72;;;;;;;20.18;73.84;102473.19;5075811;28;19908;-37
2021/07/18 07:19:37;;;;;;;;;;;;;;;20.32;74.45;102463.47;5076739;28;20055;-37
2021/07/18 07:22:02;;;;;;;5.80;3.67;;;;;;;20.24;73.81;102459.25;5076331;28;19908;-37
2021/07/18 07:24:28;;;;;;;8.82;3.97;;;;;;;20.38;72.59;102469.84;5075368;28;20468;-37
2021/07/18 07:26:54;;;;;;;6.70;2.85;;;;;;;20.47;73.76;102465.59;5075258;28;20025;-36
2021/07/18 07:29:19;;;;;;;;;;;;;;;20.58;73.54;102467.34;5074832;28;20036;-37
2021/07/18 07:31:44;;;;;;;3.73;2.20;;;;;;;20.53;70.96;102470.88;5075832;28;19911;-36
2021/07/18 07:34:10;;;;;;;;;;;;;;;20.68;71.77;102474.88;5076689;28;20270;-37
2021/07/18 07:36:35;;;;;;;3.20;1.83;;;;;;;20.65;70.26;102473.50;5075189;28;20356;-37
2021/07/18 07:39:00;;;;;;;;;;;;;;;20.74;71.68;102463.69;5075672;28;20278;-36
2021/07/18 07:41:26;;;;;;;3.97;2.00;;;;;;;20.76;69.80;102461.50;5075352;28;19915;-37
2021/07/18 07:43:56;;;;;;;;;;;;;;;20.88;70.48;102471.50;5076801;28;20048;-37
2021/07/18 07:46:21;;;;;;;3.72;1.83;;;;;;;20.85;69.76;102463.78;5074893;28;20356;-37
2021/07/18 07:48:46;;;;;;;;;;;;;;;20.98;70.93;102452.31;5075486;28;20094;-36
2021/07/18 07:51:12;;;;;;;4.73;2.10;;;;;;;21.02;70.14;102453.47;5075302;28;19915;-36
2021/07/18 07:53:37;;;;;;;;;;;;;;;21.11;70.94;102451.91;5075420;28;20262;-36
2021/07/18 07:56:03;;;;;;;2.57;1.50;;;;;;;21.12;69.90;102460.97;5075027;28;20053;-36
2021/07/18 07:58:28;;;;;;;;;;;;;;;21.23;70.81;102460.81;5074071;28;20270;-36
2021/07/18 08:00:54;;;;;;;4.03;1.83;;;;;;;21.20;68.26;102450.31;5075216;28;19912;-36
2021/07/18 08:03:19;;;;;;;;;;;;;;;21.33;69.48;102455.41;5075290;28;20023;-36
2021/07/18 08:05:44;;;;;;;4.07;1.50;;;;;;;21.31;67.34;102457.56;5074843;28;19909;-36
2021/07/18 08:08:10;;;;;;;;;;;;;;;21.44;68.45;102458.22;5075152;28;20092;-37
2021/07/18 08:10:35;;;;;;;4.38;1.80;;;;;;;21.38;67.47;102448.28;5075301;28;20018;-36
2021/07/18 08:13:01;;;;;;;2.05;1.45;;;;;;;21.49;68.63;102445.31;5074303;28;20024;-36
2021/07/18 08:15:26;;;;;;;4.22;1.70;;;;;;;21.56;67.01;102436.81;5075254;28;20028;-37
2021/07/18 08:17:52;;;;;;;3.50;1.50;;;;;;;21.67;66.64;102435.81;5074806;28;20056;-36
2021/07/18 08:20:21;;;;;;;3.05;1.65;;;;;;;21.81;66.13;102445.25;5075021;28;20036;-37
2021/07/18 08:22:48;;;;;;;2.42;1.60;;;;;;;21.81;66.11;102445.25;5074179;28;20476;-36
2021/07/18 08:25:15;;;;;;;2.40;1.45;;;;;;;21.87;67.21;102432.31;5074380;28;20028;-36
2021/07/18 08:27:41;;;;;;;2.63;1.40;;;;;;;21.98;67.23;102430.44;5074093;28;20023;-37
2021/07/18 08:30:08;;;;;;;3.83;1.80;;;;;;;22.19;65.98;102445.13;5073479;28;20012;-36
2021/07/18 08:32:34;;;;;;;4.47;1.42;;;;;;;22.13;64.46;102416.75;5073737;28;20051;-36
2021/07/18 08:34:59;;;;;;;1.90;1.23;;;;;;;22.26;64.89;102423.69;5074515;28;20117;-37
2021/07/18 08:37:25;;;;;;;4.32;1.23;;;;;;;22.47;65.04;102435.56;5073842;28;20056;-37
2021/07/18 08:39:51;;;;;;;2.55;1.55;;;;;;;22.62;66.08;102435.59;5073805;28;20103;-36
2021/07/18 08:42:17;;;;;;;3.70;1.27;;;;;;;22.66;63.87;102428.44;5073885;28;20397;-37
2021/07/18 08:44:43;;;;;;;3.72;1.25;;;;;;;22.84;64.53;102427.91;5073835;28;20035;-36
2021/07/18 08:47:08;;;;;;;2.95;1.42;;;;;;;22.90;63.28;102434.28;5073032;28;20032;-36
2021/07/18 08:49:34;;;;;;;4.28;1.40;;;;;;;22.87;62.04;102434.78;5073185;28;20047;-36
2021/07/18 08:52:00;;;;;;;3.45;1.60;;;;;;;22.91;61.13;102435.09;5073488;28;20028;-37
2021/07/18 08:54:26;;;;;;;3.00;1.33;;;;;;;23.04;61.44;102437.31;5073841;28;20035;-36
2021/07/18 08:56:53;;;;;;;6.13;1.75;;;;;;;23.10;59.86;102441.72;5073543;28;20475;-37
2021/07/18 08:59:19;;;;;;;3.17;1.48;;;;;;;23.17;61.37;102433.97;5073549;28;20125;-36
2021/07/18 09:01:44;;;;;;;3.33;1.50;;;;;;;23.37;60.95;102438.63;5073700;28;20032;-37
2021/07/18 09:04:10;;;;;;;2.72;1.50;;;;;;;23.41;60.79;102427.84;5074027;28;20029;-37
2021/07/18 09:06:40;;;;;;;2.95;1.75;;;;;;;23.49;60.92;102432.81;5073000;28;20530;-36
2021/07/18 09:09:08;;;;;;;4.18;2.00;;;;;;;23.56;60.18;102433.34;5073560;28;20059;-37
2021/07/18 09:11:34;;;;;;;6.95;1.95;;;;;;;23.64;59.72;102425.34;5073303;28;20107;-37
2021/07/18 09:14:05;;;;;;;2.95;1.58;;;;;;;23.81;60.11;102430.53;5073197;28;20047;-37
2021/07/18 09:16:39;;;;;;;4.15;1.60;;;;;;;23.92;60.73;102436.03;5072715;28;20024;-37
2021/07/18 09:19:23;;;;;;;3.58;2.10;;;;;;;23.99;61.11;102433.78;5073568;28;20075;-37
2021/07/18 09:22:04;;;;;;;3.63;2.05;;;;;;;24.07;60.15;102430.44;5073215;28;20542;-37
2021/07/18 09:24:37;;;;;;;2.70;1.80;;;;;;;24.20;58.63;102429.78;5073235;28;20031;-37
2021/07/18 09:27:25;;;;;;;3.78;2.10;;;;;;;24.18;59.04;102434.78;5073108;28;20028;-36
2021/07/18 09:29:55;;;;;;;4.63;2.10;;;;;;;24.37;59.75;102427.53;5072873;28;20360;-37
2021/07/18 09:32:26;;;;;;;6.32;2.03;;;;;;;24.40;58.47;102426.97;5073091;28;20031;-37
2021/07/18 09:35:00;;;;;;;5.53;2.15;;;;;;;24.38;58.31;102418.09;5072084;28;20536;-37
2021/07/18 09:37:31;;;;;;;6.18;2.30;;;;;;;24.48;57.47;102431.03;5073689;28;20048;-37
2021/07/18 09:39:57;;;;;;;7.43;2.22;;;;;;;24.52;57.69;102418.28;5072106;28;20032;-37
2021/07/18 09:42:27;;;;;;;6.88;2.20;;;;;;;24.59;58.67;102412.44;5072803;28;20044;-37
2021/07/18 09:44:52;;;;;;;4.93;2.08;;;;;;;24.86;59.45;102410.00;5072694;28;20489;-37
2021/07/18 09:47:18;;;;;;;5.10;2.42;;;;;;;24.89;57.99;102406.66;5072387;28;20052;-37
2021/07/18 09:49:43;;;;;;;3.60;1.65;;;;;;;24.86;56.86;102407.25;5072685;28;20114;-37
2021/07/18 09:52:23;;;;;;;3.28;1.98;;;;;;;25.09;58.11;102411.22;5072991;28;20155;-37
2021/07/18 09:54:53;;;;;;;6.07;2.20;;;;;;;25.19;57.50;102384.56;5072376;28;20035;-37
2021/07/18 09:57:27;;;;;;;4.25;2.08;;;;;;;25.35;56.89;102397.94;5072299;28;20017;-37
2021/07/18 09:59:53;;;;;;;3.83;1.95;;;;;;;25.38;55.85;102391.81;5073978;28;20039;-37
2021/07/18 10:02:25;;;;;;;4.10;2.15;;;;;;;25.37;56.26;102389.31;5076782;28;20025;-37
2021/07/18 10:04:52;;;;;;;6.38;2.05;;;;;;;25.49;56.54;102388.94;5076455;28;20024;-37
2021/07/18 10:07:20;;;;;;;4.28;1.90;;;;;;;25.67;54.80;102394.53;5076202;28;20048;-37
2021/07/18 10:09:46;;;;;;;5.22;2.28;;;;;;;25.68;53.45;102395.34;5076842;28;20047;-37
2021/07/18 10:12:11;;;;;;;5.55;2.28;;;;;;;25.72;55.11;102392.78;5076609;28;20029;-37
2021/07/18 10:14:37;;;;;;;5.53;2.05;;;;;;;25.61;55.04;102378.25;5076155;28;20532;-37
2021/07/18 10:17:03;;;;;;;5.55;2.00;;;;;;;25.83;54.60;102389.66;5076193;28;20025;-37
2021/07/18 10:19:29;;;;;;;4.18;2.10;;;;;;;25.97;54.55;102392.50;5076737;28;20055;-37
2021/07/18 10:21:55;;;;;;;5.72;2.25;;;;;;;26.07;54.99;102388.78;5076500;28;20036;-37
2021/07/18 10:24:21;;;;;;;5.38;2.00;;;;;;;26.13;54.49;102390.34;5076151;28;20024;-37
2021/07/18 10:26:47;;;;;;;7.35;2.50;;;;;;;26.06;54.07;102368.56;5076644;28;20043;-37
2021/07/18 10:29:13;;;;;;;5.15;2.03;;;;;;;25.94;52.70;102382.84;5056495;28;20067;-37
2021/07/18 10:31:44;;;;;;;4.97;1.98;;;;;;;26.02;53.14;102383.31;5061306;28;20070;-37
2021/07/18 10:34:10;;;;;;;4.32;2.20;;;;;;;26.14;53.76;102378.94;5073565;28;20032;-37
2021/07/18 10:36:36;;;;;;;4.20;1.98;;;;;;;26.25;52.82;102376.84;5075671;28;20031;-37
2021/07/18 10:39:30;;;;;;;4.55;2.25;;;;;;;26.37;53.16;102381.94;5076345;28;20016;-37
2021/07/18 10:41:57;;;;;;;4.47;1.80;;;;;;;26.32;52.80;102373.72;5075702;28;20017;-37
2021/07/18 10:44:22;;;;;;;4.72;2.42;;;;;;;26.38;52.56;102358.63;5075952;28;20063;-37
2021/07/18 10:46:54;;;;;;;3.40;1.85;;;;;;;26.59;52.62;102370.25;5076218;28;20052;-37
2021/07/18 10:49:58;;;;;;;5.63;2.28;;;;;;;26.67;53.36;102377.88;5075415;28;20052;-37
2021/07/18 10:52:34;;;;;;;4.05;2.35;;;;;;;26.64;53.17;102367.38;5076277;28;20115;-37
2021/07/18 10:55:02;;;;;;;2.95;1.83;;;;;;;26.61;52.55;102368.00;5075789;28;20032;-37
2021/07/18 10:57:32;;;;;;;4.75;1.80;;;;;;;26.57;51.17;102364.19;5075690;28;20020;-37
2021/07/18 11:00:46;;;;;;;4.13;2.20;;;;;;;26.75;51.36;102365.28;5075851;28;20031;-37
2021/07/18 11:03:12;;;;;;;3.05;1.80;;;;;;;26.72;50.72;102363.91;5036286;28;20021;-37
2021/07/18 11:05:38;;;;;;;4.07;2.00;;;;;;;26.90;50.73;102371.38;5033659;28;20041;-37
2021/07/18 11:08:05;;;;;;;5.78;2.00;;;;;;;26.82;50.24;102368.47;5039619;28;20041;-38
2021/07/18 11:10:54;;;;;;;5.25;1.88;;;;;;;26.82;52.35;102344.31;5054042;28;20048;-37
2021/07/18 11:13:21;;;;;;;3.47;2.05;;;;;;;27.08;52.04;102371.63;5049773;28;20053;-37
2021/07/18 11:15:47;;;;;;;4.38;1.75;;;;;;;27.12;51.23;102367.94;5053607;28;20029;-37
2021/07/18 11:18:17;;;;;;;3.90;2.13;;;;;;;27.33;50.51;102368.38;5047143;28;20083;-37
2021/07/18 11:20:48;;;;;;;4.70;1.80;;;;;;;27.23;50.94;102348.31;5053315;28;20025;-37
2021/07/18 11:23:19;;;;;;;4.35;2.00;;;;;;;27.39;50.58;102350.47;5038007;28;20421;-37
2021/07/18 11:25:46;;;;;;;3.85;1.90;;;;;;;27.57;50.67;102347.88;5048066;28;20040;-37
2021/07/18 11:31:12;;;;;;;5.78;2.05;;;;;;;27.42;49.29;102341.50;5053073;28;20484;-37
2021/07/18 11:33:44;;;;;;;5.00;1.80;;;;;;;27.44;50.51;102341.22;5058989;28;20032;-37
2021/07/18 11:36:17;;;;;;;4.35;1.85;;;;;;;27.50;50.91;102331.66;5074758;28;20107;-37
2021/07/18 11:38:42;;;;;;;2.47;1.63;;;;;;;27.54;49.87;102340.19;5074287;28;20032;-37